createdAt,value
2019-01-02T00:00:09.498Z,1002.4
2019-01-02T00:01:09.469Z,1002.28
2019-01-02T00:02:09.452Z,1002.43
2019-01-02T00:03:09.460Z,1002.4
2019-01-02T00:04:09.435Z,1002.33
2019-01-02T00:05:09.425Z,1002.31
2019-01-02T00:06:09.422Z,1002.31
2019-01-02T00:07:09.406Z,1002.34
2019-01-02T00:08:09.396Z,1002.41
2019-01-02T00:09:09.399Z,1002.37
2019-01-02T00:10:09.377Z,1002.31
2019-01-02T00:11:09.368Z,1002.39
2019-01-02T00:12:09.358Z,1002.34
2019-01-02T00:13:09.350Z,1002.35
2019-01-02T00:14:09.382Z,1002.39
2019-01-02T00:15:09.333Z,1002.42
2019-01-02T00:16:09.332Z,1002.46
2019-01-02T00:17:09.310Z,1002.33
2019-01-02T00:18:09.303Z,1002.38
2019-01-02T00:19:09.293Z,1002.33
2019-01-02T00:20:09.283Z,1002.27
2019-01-02T00:21:09.278Z,1002.32
2019-01-02T00:22:09.276Z,1002.29
2019-01-02T00:23:09.256Z,1002.26
2019-01-02T00:24:09.246Z,1002.24
2019-01-02T00:25:09.236Z,1002.26
2019-01-02T00:26:09.225Z,1002.25
2019-01-02T00:27:09.215Z,1002.29
2019-01-02T00:28:09.212Z,1002.33
2019-01-02T00:29:09.197Z,1002.35
2019-01-02T00:30:09.191Z,1002.46
2019-01-02T00:31:09.176Z,1002.48
2019-01-02T00:32:09.169Z,1002.5
2019-01-02T00:33:09.157Z,1002.48
2019-01-02T00:34:09.145Z,1002.54
2019-01-02T00:35:09.138Z,1002.62
2019-01-02T00:36:09.128Z,1002.67
2019-01-02T00:37:09.119Z,1002.67
2019-01-02T00:38:09.111Z,1002.76
2019-01-02T00:39:09.212Z,1002.67
2019-01-02T00:40:09.095Z,1002.62
2019-01-02T00:41:09.082Z,1002.86
2019-01-02T00:42:09.071Z,1002.65
2019-01-02T00:43:09.060Z,1002.79
2019-01-02T00:44:09.054Z,1002.8
2019-01-02T00:45:09.041Z,1002.83
2019-01-02T00:46:09.032Z,1002.82
2019-01-02T00:47:09.040Z,1002.83
2019-01-02T00:48:09.012Z,1002.83
2019-01-02T00:49:09.051Z,1002.84
2019-01-02T00:50:08.994Z,1002.79
2019-01-02T00:51:08.986Z,1002.79
2019-01-02T00:52:08.973Z,1002.82
2019-01-02T00:53:08.970Z,1002.7
2019-01-02T00:54:08.962Z,1002.77
2019-01-02T00:55:08.947Z,1002.8
2019-01-02T00:56:08.934Z,1002.8
2019-01-02T00:57:08.927Z,1002.84
2019-01-02T00:58:08.930Z,1002.79
2019-01-02T00:59:08.907Z,1002.84
2019-01-02T01:00:08.901Z,1002.87
2019-01-02T01:01:08.896Z,1002.87
2019-01-02T01:02:08.882Z,1002.9
2019-01-02T01:03:08.872Z,1002.85
2019-01-02T01:04:08.860Z,1002.84
2019-01-02T01:05:08.862Z,1002.85
2019-01-02T01:06:08.845Z,1002.82
2019-01-02T01:07:08.838Z,1002.88
2019-01-02T01:08:08.824Z,1002.84
2019-01-02T01:09:08.830Z,1002.87
2019-01-02T01:10:08.807Z,1002.84
2019-01-02T01:11:08.807Z,1002.82
2019-01-02T01:12:08.802Z,1002.79
2019-01-02T01:13:08.779Z,1002.8
2019-01-02T01:14:08.765Z,1002.86
2019-01-02T01:15:08.761Z,1002.88
2019-01-02T01:16:08.749Z,1002.86
2019-01-02T01:17:08.742Z,1002.93
2019-01-02T01:18:08.738Z,1003.01
2019-01-02T01:19:08.722Z,1002.98
2019-01-02T01:20:08.709Z,1002.99
2019-01-02T01:21:08.704Z,1003.02
2019-01-02T01:22:08.694Z,1003
2019-01-02T01:23:08.682Z,1003.03
2019-01-02T01:24:08.672Z,1003
2019-01-02T01:25:08.661Z,1002.98
2019-01-02T01:26:08.708Z,1003.03
2019-01-02T01:27:08.651Z,1003.11
2019-01-02T01:28:08.635Z,1003.11
2019-01-02T01:29:08.626Z,1003.2
2019-01-02T01:30:08.617Z,1003.14
2019-01-02T01:31:08.609Z,1003.11
2019-01-02T01:32:08.599Z,1003.15
2019-01-02T01:33:08.587Z,1003.16
2019-01-02T01:34:08.578Z,1003.17
2019-01-02T01:35:08.570Z,1003.19
2019-01-02T01:36:08.574Z,1003.32
2019-01-02T01:37:08.550Z,1003.28
2019-01-02T01:38:08.540Z,1003.32
2019-01-02T01:39:08.535Z,1003.39
2019-01-02T01:40:08.525Z,1003.4
2019-01-02T01:41:08.516Z,1003.38
2019-01-02T01:42:08.504Z,1003.38
2019-01-02T01:43:08.493Z,1003.4
2019-01-02T01:44:08.485Z,1003.45
2019-01-02T01:45:08.475Z,1003.42
2019-01-02T01:46:08.462Z,1003.4
2019-01-02T01:47:08.457Z,1003.45
2019-01-02T01:48:08.443Z,1003.44
2019-01-02T01:49:08.439Z,1003.46
2019-01-02T01:50:08.426Z,1003.44
2019-01-02T01:51:08.418Z,1003.4
2019-01-02T01:52:08.406Z,1003.44
2019-01-02T01:53:08.397Z,1003.39
2019-01-02T01:54:08.385Z,1003.42
2019-01-02T01:55:08.382Z,1003.46
2019-01-02T01:56:08.368Z,1003.51
2019-01-02T01:57:08.359Z,1003.49
2019-01-02T01:58:08.346Z,1003.46
2019-01-02T01:59:08.339Z,1003.47
2019-01-02T02:00:08.331Z,1003.52
2019-01-02T02:01:08.328Z,1003.5
2019-01-02T02:02:08.313Z,1003.51
2019-01-02T02:03:08.301Z,1003.55
2019-01-02T02:04:08.292Z,1003.49
2019-01-02T02:05:08.281Z,1003.5
2019-01-02T02:06:08.279Z,1003.44
2019-01-02T02:07:08.262Z,1003.43
2019-01-02T02:08:08.259Z,1003.37
2019-01-02T02:09:08.240Z,1003.29
2019-01-02T02:10:08.232Z,1003.3
2019-01-02T02:11:08.220Z,1003.31
2019-01-02T02:12:08.212Z,1003.4
2019-01-02T02:13:08.202Z,1003.43
2019-01-02T02:14:08.193Z,1003.45
2019-01-02T02:15:08.182Z,1003.39
2019-01-02T02:16:08.181Z,1003.46
2019-01-02T02:17:08.181Z,1003.43
2019-01-02T02:18:08.153Z,1003.46
2019-01-02T02:19:08.142Z,1003.39
2019-01-02T02:20:08.180Z,1003.45
2019-01-02T02:21:08.125Z,1003.43
2019-01-02T02:22:08.119Z,1003.41
2019-01-02T02:23:08.101Z,1003.35
2019-01-02T02:24:08.091Z,1003.36
2019-01-02T02:25:08.082Z,1003.39
2019-01-02T02:26:08.072Z,1003.43
2019-01-02T02:27:08.062Z,1003.41
2019-01-02T02:28:08.069Z,1003.4
2019-01-02T02:29:08.042Z,1003.4
2019-01-02T02:30:08.035Z,1003.42
2019-01-02T02:31:08.023Z,1003.31
2019-01-02T02:32:08.013Z,1003.24
2019-01-02T02:33:08.017Z,1003.22
2019-01-02T02:34:07.994Z,1003.15
2019-01-02T02:35:07.982Z,1003.18
2019-01-02T02:36:07.972Z,1003.09
2019-01-02T02:37:07.971Z,1003.15
2019-01-02T02:38:07.955Z,1003.16
2019-01-02T02:39:07.958Z,1003.22
2019-01-02T02:40:07.934Z,1003.28
2019-01-02T02:41:07.927Z,1003.31
2019-01-02T02:42:07.914Z,1003.35
2019-01-02T02:43:07.904Z,1003.34
2019-01-02T02:44:07.899Z,1003.34
2019-01-02T02:45:07.885Z,1003.32
2019-01-02T02:46:07.878Z,1003.35
2019-01-02T02:47:07.866Z,1003.35
2019-01-02T02:48:07.857Z,1003.34
2019-01-02T02:49:07.847Z,1003.31
2019-01-02T02:50:07.843Z,1003.33
2019-01-02T02:51:07.827Z,1003.31
2019-01-02T02:52:07.818Z,1003.34
2019-01-02T02:53:07.806Z,1003.33
2019-01-02T02:54:07.799Z,1003.46
2019-01-02T02:55:07.791Z,1003.52
2019-01-02T02:56:07.778Z,1003.49
2019-01-02T02:57:07.770Z,1003.46
2019-01-02T02:58:07.758Z,1003.48
2019-01-02T02:59:07.755Z,1003.47
2019-01-02T03:00:07.739Z,1003.44
2019-01-02T03:01:07.745Z,1003.53
2019-01-02T03:02:07.721Z,1003.5
2019-01-02T03:03:07.712Z,1003.53
2019-01-02T03:04:07.702Z,1003.48
2019-01-02T03:05:07.692Z,1003.48
2019-01-02T03:06:07.708Z,1003.51
2019-01-02T03:07:07.670Z,1003.5
2019-01-02T03:08:07.671Z,1003.53
2019-01-02T03:09:07.655Z,1003.5
2019-01-02T03:10:07.642Z,1003.52
2019-01-02T03:11:07.649Z,1003.53
2019-01-02T03:12:07.633Z,1003.52
2019-01-02T03:13:07.638Z,1003.58
2019-01-02T03:14:07.603Z,1003.58
2019-01-02T03:15:07.592Z,1003.57
2019-01-02T03:16:07.593Z,1003.56
2019-01-02T03:17:07.577Z,1003.56
2019-01-02T03:18:07.565Z,1003.46
2019-01-02T03:19:07.565Z,1003.46
2019-01-02T03:20:07.549Z,1003.47
2019-01-02T03:21:07.546Z,1003.47
2019-01-02T03:22:07.526Z,1003.43
2019-01-02T03:23:07.529Z,1003.47
2019-01-02T03:24:07.513Z,1003.49
2019-01-02T03:25:07.498Z,1003.6
2019-01-02T03:26:07.494Z,1003.69
2019-01-02T03:27:07.480Z,1003.51
2019-01-02T03:28:07.473Z,1003.55
2019-01-02T03:29:07.460Z,1003.57
2019-01-02T03:30:07.488Z,1003.51
2019-01-02T03:31:07.449Z,1003.55
2019-01-02T03:32:07.435Z,1003.52
2019-01-02T03:33:07.418Z,1003.49
2019-01-02T03:34:07.431Z,1003.53
2019-01-02T03:35:07.403Z,1003.54
2019-01-02T03:36:08.198Z,1003.48
2019-01-02T03:37:07.385Z,1003.56
2019-01-02T03:38:07.371Z,1003.58
2019-01-02T03:39:07.367Z,1003.56
2019-01-02T03:40:07.357Z,1003.6
2019-01-02T03:41:07.366Z,1003.65
2019-01-02T03:42:07.332Z,1003.69
2019-01-02T03:43:07.325Z,1003.65
2019-01-02T03:44:07.312Z,1003.6
2019-01-02T03:45:07.302Z,1003.62
2019-01-02T03:46:07.309Z,1003.61
2019-01-02T03:47:07.284Z,1003.64
2019-01-02T03:48:07.273Z,1003.69
2019-01-02T03:49:07.264Z,1003.7
2019-01-02T03:50:07.256Z,1003.72
2019-01-02T03:51:07.249Z,1003.62
2019-01-02T03:52:07.240Z,1003.63
2019-01-02T03:53:07.225Z,1003.61
2019-01-02T03:54:07.211Z,1003.53
2019-01-02T03:55:07.201Z,1003.58
2019-01-02T03:56:07.204Z,1003.67
2019-01-02T03:57:07.181Z,1003.69
2019-01-02T03:58:07.173Z,1003.67
2019-01-02T03:59:07.165Z,1003.7
2019-01-02T04:00:07.152Z,1003.72
2019-01-02T04:01:07.146Z,1003.73
2019-01-02T04:02:07.130Z,1003.69
2019-01-02T04:03:07.122Z,1003.72
2019-01-02T04:04:07.111Z,1003.64
2019-01-02T04:05:07.100Z,1003.7
2019-01-02T04:06:07.102Z,1003.62
2019-01-02T04:07:07.079Z,1003.61
2019-01-02T04:08:07.071Z,1003.64
2019-01-02T04:09:07.058Z,1003.58
2019-01-02T04:10:07.053Z,1003.63
2019-01-02T04:11:07.047Z,1003.62
2019-01-02T04:12:07.031Z,1003.55
2019-01-02T04:13:07.016Z,1003.61
2019-01-02T04:14:07.194Z,1003.62
2019-01-02T04:15:06.996Z,1003.68
2019-01-02T04:16:06.997Z,1003.74
2019-01-02T04:17:06.973Z,1003.66
2019-01-02T04:18:06.971Z,1003.66
2019-01-02T04:19:06.955Z,1003.67
2019-01-02T04:20:06.965Z,1003.67
2019-01-02T04:21:06.940Z,1003.6
2019-01-02T04:22:06.921Z,1003.61
2019-01-02T04:23:06.910Z,1003.57
2019-01-02T04:24:06.900Z,1003.66
2019-01-02T04:25:06.894Z,1003.65
2019-01-02T04:26:06.885Z,1003.67
2019-01-02T04:27:06.868Z,1003.73
2019-01-02T04:28:06.864Z,1003.71
2019-01-02T04:29:06.859Z,1003.73
2019-01-02T04:30:06.836Z,1003.76
2019-01-02T04:31:06.828Z,1003.77
2019-01-02T04:32:06.814Z,1003.7
2019-01-02T04:33:06.808Z,1003.82
2019-01-02T04:34:06.796Z,1003.83
2019-01-02T04:35:06.833Z,1003.79
2019-01-02T04:36:06.799Z,1003.82
2019-01-02T04:37:07.069Z,1003.88
2019-01-02T04:38:06.754Z,1003.84
2019-01-02T04:39:06.753Z,1003.8
2019-01-02T04:40:06.745Z,1003.84
2019-01-02T04:41:06.721Z,1003.89
2019-01-02T04:42:06.707Z,1004.01
2019-01-02T04:43:06.702Z,1003.97
2019-01-02T04:44:06.690Z,1004.01
2019-01-02T04:45:06.679Z,1004.04
2019-01-02T04:46:06.666Z,1003.99
2019-01-02T04:47:06.657Z,1004.03
2019-01-02T04:48:06.646Z,1003.99
2019-01-02T04:49:06.647Z,1003.99
2019-01-02T04:50:06.627Z,1003.9
2019-01-02T04:51:06.653Z,1003.89
2019-01-02T04:52:07.456Z,1003.8
2019-01-02T04:53:06.599Z,1003.87
2019-01-02T04:54:06.582Z,1003.82
2019-01-02T04:55:06.574Z,1003.8
2019-01-02T04:56:06.562Z,1003.73
2019-01-02T04:57:06.553Z,1003.73
2019-01-02T04:58:06.545Z,1003.7
2019-01-02T04:59:06.542Z,1003.73
2019-01-02T05:00:06.530Z,1003.74
2019-01-02T05:01:06.520Z,1003.78
2019-01-02T05:02:06.515Z,1003.81
2019-01-02T05:03:06.498Z,1003.77
2019-01-02T05:04:06.488Z,1003.87
2019-01-02T05:05:06.477Z,1003.89
2019-01-02T05:06:06.469Z,1003.87
2019-01-02T05:07:06.448Z,1003.8
2019-01-02T05:08:06.446Z,1003.81
2019-01-02T05:09:06.444Z,1003.83
2019-01-02T05:10:06.439Z,1003.84
2019-01-02T05:11:06.409Z,1003.88
2019-01-02T05:12:06.397Z,1003.93
2019-01-02T05:13:06.407Z,1003.96
2019-01-02T05:14:06.383Z,1004.03
2019-01-02T05:15:06.372Z,1004
2019-01-02T05:16:06.363Z,1003.99
2019-01-02T05:17:06.352Z,1004.02
2019-01-02T05:18:06.337Z,1004.03
2019-01-02T05:19:06.326Z,1004.01
2019-01-02T05:20:06.346Z,1004.02
2019-01-02T05:21:06.312Z,1004.01
2019-01-02T05:22:06.293Z,1004.07
2019-01-02T05:23:06.285Z,1004.02
2019-01-02T05:24:06.286Z,1004.06
2019-01-02T05:25:06.265Z,1004.06
2019-01-02T05:26:06.254Z,1004.01
2019-01-02T05:27:06.250Z,1004.08
2019-01-02T05:28:06.234Z,1004
2019-01-02T05:29:06.223Z,1004.04
2019-01-02T05:30:06.215Z,1004.05
2019-01-02T05:31:06.205Z,1003.97
2019-01-02T05:32:06.194Z,1003.92
2019-01-02T05:33:06.184Z,1003.9
2019-01-02T05:34:06.174Z,1003.91
2019-01-02T05:35:06.170Z,1003.99
2019-01-02T05:36:06.156Z,1004.03
2019-01-02T05:37:06.141Z,1004.08
2019-01-02T05:38:06.134Z,1003.98
2019-01-02T05:39:06.121Z,1004.04
2019-01-02T05:40:06.112Z,1003.97
2019-01-02T05:41:06.100Z,1003.95
2019-01-02T05:42:06.097Z,1003.87
2019-01-02T05:43:06.080Z,1003.95
2019-01-02T05:44:06.070Z,1004.02
2019-01-02T05:45:06.059Z,1003.98
2019-01-02T05:46:06.055Z,1003.99
2019-01-02T05:47:06.040Z,1004.01
2019-01-02T05:48:06.029Z,1004.03
2019-01-02T05:49:06.021Z,1004.02
2019-01-02T05:50:06.009Z,1003.95
2019-01-02T05:51:06.002Z,1003.89
2019-01-02T05:52:05.992Z,1003.82
2019-01-02T05:53:05.979Z,1003.82
2019-01-02T05:54:05.968Z,1003.78
2019-01-02T05:55:05.956Z,1003.79
2019-01-02T05:56:05.948Z,1003.9
2019-01-02T05:57:05.952Z,1003.88
2019-01-02T05:58:05.925Z,1003.83
2019-01-02T05:59:05.926Z,1003.88
2019-01-02T06:00:05.908Z,1003.87
2019-01-02T06:01:05.896Z,1003.89
2019-01-02T06:02:05.888Z,1003.98
2019-01-02T06:03:05.887Z,1003.82
2019-01-02T06:04:05.884Z,1003.95
2019-01-02T06:05:05.854Z,1003.99
2019-01-02T06:06:05.842Z,1003.98
2019-01-02T06:07:05.835Z,1004.08
2019-01-02T06:08:05.834Z,1004.06
2019-01-02T06:09:05.824Z,1004.14
2019-01-02T06:10:05.803Z,1004.15
2019-01-02T06:11:05.796Z,1004.22
2019-01-02T06:12:05.783Z,1004.24
2019-01-02T06:13:05.785Z,1004.19
2019-01-02T06:14:05.762Z,1004.23
2019-01-02T06:15:05.752Z,1004.3
2019-01-02T06:16:05.741Z,1004.27
2019-01-02T06:17:05.728Z,1004.17
2019-01-02T06:18:05.724Z,1004.22
2019-01-02T06:19:05.711Z,1004.15
2019-01-02T06:20:05.698Z,1004.15
2019-01-02T06:21:05.687Z,1004.15
2019-01-02T06:22:05.677Z,1004.17
2019-01-02T06:23:05.668Z,1004.21
2019-01-02T06:24:05.657Z,1004.15
2019-01-02T06:25:05.651Z,1004.11
2019-01-02T06:26:05.639Z,1004.06
2019-01-02T06:27:05.631Z,1004.04
2019-01-02T06:28:05.620Z,1004.16
2019-01-02T06:29:05.606Z,1004.18
2019-01-02T06:30:05.600Z,1004.18
2019-01-02T06:31:05.593Z,1004.12
2019-01-02T06:32:05.586Z,1004.21
2019-01-02T06:33:05.566Z,1004.22
2019-01-02T06:34:05.559Z,1004.1
2019-01-02T06:35:05.548Z,1004.13
2019-01-02T06:36:05.538Z,1004.11
2019-01-02T06:37:05.540Z,1004.09
2019-01-02T06:38:05.534Z,1004.04
2019-01-02T06:39:05.506Z,1004.01
2019-01-02T06:40:05.496Z,1004.05
2019-01-02T06:41:05.486Z,1003.97
2019-01-02T06:42:05.479Z,1003.95
2019-01-02T06:43:05.468Z,1003.92
2019-01-02T06:44:05.455Z,1003.98
2019-01-02T06:45:05.445Z,1003.92
2019-01-02T06:46:05.435Z,1003.91
2019-01-02T06:47:05.424Z,1003.9
2019-01-02T06:48:05.413Z,1003.94
2019-01-02T06:49:05.404Z,1003.92
2019-01-02T06:50:05.411Z,1003.96
2019-01-02T06:51:05.386Z,1003.97
2019-01-02T06:52:05.378Z,1003.91
2019-01-02T06:53:05.362Z,1003.98
2019-01-02T06:54:05.351Z,1004.02
2019-01-02T06:55:05.339Z,1004.01
2019-01-02T06:56:05.330Z,1004.02
2019-01-02T06:57:05.319Z,1004.07
2019-01-02T06:58:05.312Z,1004.02
2019-01-02T06:59:05.300Z,1004.1
2019-01-02T07:00:05.291Z,1003.99
2019-01-02T07:01:05.276Z,1004.13
2019-01-02T07:02:05.272Z,1004.14
2019-01-02T07:03:05.258Z,1004.17
2019-01-02T07:04:05.248Z,1004.14
2019-01-02T07:05:05.238Z,1004.1
2019-01-02T07:06:05.226Z,1004.17
2019-01-02T07:07:05.216Z,1004.16
2019-01-02T07:08:05.207Z,1004.2
2019-01-02T07:09:05.196Z,1004.24
2019-01-02T07:10:05.195Z,1004.16
2019-01-02T07:11:05.174Z,1004.26
2019-01-02T07:12:05.177Z,1004.13
2019-01-02T07:13:05.154Z,1004.3
2019-01-02T07:14:05.164Z,1004.19
2019-01-02T07:15:05.133Z,1004.35
2019-01-02T07:16:05.120Z,1004.33
2019-01-02T07:17:05.110Z,1004.32
2019-01-02T07:18:05.111Z,1004.32
2019-01-02T07:19:05.092Z,1004.4
2019-01-02T07:20:05.080Z,1004.31
2019-01-02T07:21:05.071Z,1004.41
2019-01-02T07:22:05.060Z,1004.41
2019-01-02T07:23:05.057Z,1004.39
2019-01-02T07:24:05.043Z,1004.45
2019-01-02T07:25:05.033Z,1004.43
2019-01-02T07:26:05.022Z,1004.45
2019-01-02T07:27:05.006Z,1004.45
2019-01-02T07:28:04.999Z,1004.34
2019-01-02T07:29:04.994Z,1004.56
2019-01-02T07:30:04.974Z,1004.51
2019-01-02T07:31:04.965Z,1004.52
2019-01-02T07:32:04.956Z,1004.54
2019-01-02T07:33:04.946Z,1004.54
2019-01-02T07:34:04.937Z,1004.54
2019-01-02T07:35:04.932Z,1004.49
2019-01-02T07:36:04.917Z,1004.61
2019-01-02T07:37:04.905Z,1004.63
2019-01-02T07:38:04.895Z,1004.71
2019-01-02T07:39:04.883Z,1004.7
2019-01-02T07:40:04.872Z,1004.7
2019-01-02T07:41:04.867Z,1004.75
2019-01-02T07:42:04.853Z,1004.79
2019-01-02T07:43:04.845Z,1004.79
2019-01-02T07:44:04.850Z,1004.83
2019-01-02T07:45:04.821Z,1004.79
2019-01-02T07:46:04.818Z,1004.75
2019-01-02T07:47:04.815Z,1004.8
2019-01-02T07:48:04.805Z,1004.77
2019-01-02T07:49:04.783Z,1004.85
2019-01-02T07:50:04.782Z,1004.8
2019-01-02T07:51:04.769Z,1004.85
2019-01-02T07:52:04.752Z,1004.83
2019-01-02T07:53:04.740Z,1004.89
2019-01-02T07:54:04.732Z,1004.83
2019-01-02T07:55:04.726Z,1004.9
2019-01-02T07:56:04.709Z,1004.92
2019-01-02T07:57:04.744Z,1004.79
2019-01-02T07:58:04.701Z,1004.83
2019-01-02T07:59:04.684Z,1004.84
2019-01-02T08:00:04.672Z,1004.84
2019-01-02T08:01:04.664Z,1004.84
2019-01-02T08:02:04.654Z,1004.87
2019-01-02T08:03:04.646Z,1004.86
2019-01-02T08:04:04.636Z,1004.91
2019-01-02T08:05:04.622Z,1004.87
2019-01-02T08:06:04.610Z,1004.79
2019-01-02T08:07:04.600Z,1004.86
2019-01-02T08:08:04.592Z,1004.82
2019-01-02T08:09:04.578Z,1004.85
2019-01-02T08:10:04.569Z,1004.84
2019-01-02T08:11:04.561Z,1004.83
2019-01-02T08:12:04.551Z,1004.81
2019-01-02T08:13:04.542Z,1004.85
2019-01-02T08:14:04.531Z,1004.85
2019-01-02T08:15:04.518Z,1004.8
2019-01-02T08:16:04.506Z,1004.89
2019-01-02T08:17:04.498Z,1004.88
2019-01-02T08:18:04.490Z,1004.87
2019-01-02T08:19:04.478Z,1004.88
2019-01-02T08:20:04.476Z,1004.84
2019-01-02T08:21:04.459Z,1004.94
2019-01-02T08:22:04.453Z,1004.91
2019-01-02T08:23:04.441Z,1004.9
2019-01-02T08:24:04.444Z,1004.89
2019-01-02T08:25:04.419Z,1004.92
2019-01-02T08:26:04.408Z,1004.97
2019-01-02T08:27:04.398Z,1005
2019-01-02T08:28:04.403Z,1005.01
2019-01-02T08:29:04.391Z,1004.98
2019-01-02T08:30:04.370Z,1004.94
2019-01-02T08:31:04.361Z,1004.96
2019-01-02T08:32:04.350Z,1004.95
2019-01-02T08:33:04.343Z,1005.08
2019-01-02T08:34:04.328Z,1005.05
2019-01-02T08:35:04.327Z,1005.04
2019-01-02T08:36:04.306Z,1005.07
2019-01-02T08:37:04.298Z,1005.04
2019-01-02T08:38:04.293Z,1005.06
2019-01-02T08:39:04.283Z,1005.01
2019-01-02T08:40:04.273Z,1005.02
2019-01-02T08:41:04.256Z,1005.1
2019-01-02T08:42:04.250Z,1004.93
2019-01-02T08:43:04.239Z,1005.07
2019-01-02T08:44:04.235Z,1005.11
2019-01-02T08:45:04.222Z,1005.14
2019-01-02T08:46:04.210Z,1005.17
2019-01-02T08:47:04.212Z,1005.12
2019-01-02T08:48:04.188Z,1005.1
2019-01-02T08:49:04.184Z,1005.09
2019-01-02T08:50:04.170Z,1005.21
2019-01-02T08:51:04.160Z,1005.21
2019-01-02T08:52:04.149Z,1005.19
2019-01-02T08:53:04.138Z,1005.2
2019-01-02T08:54:05.333Z,1005.22
2019-01-02T08:55:04.120Z,1005.28
2019-01-02T08:56:04.107Z,1005.29
2019-01-02T08:57:04.101Z,1005.3
2019-01-02T08:58:04.088Z,1005.33
2019-01-02T08:59:04.079Z,1005.41
2019-01-02T09:00:04.070Z,1005.34
2019-01-02T09:01:04.061Z,1005.38
2019-01-02T09:02:04.051Z,1005.42
2019-01-02T09:03:04.039Z,1005.45
2019-01-02T09:04:04.038Z,1005.52
2019-01-02T09:05:04.021Z,1005.51
2019-01-02T09:06:04.015Z,1005.49
2019-01-02T09:07:04.000Z,1005.53
2019-01-02T09:08:03.994Z,1005.52
2019-01-02T09:09:03.988Z,1005.6
2019-01-02T09:10:03.983Z,1005.48
2019-01-02T09:11:03.961Z,1005.57
2019-01-02T09:12:03.960Z,1005.61
2019-01-02T09:13:03.945Z,1005.53
2019-01-02T09:14:03.936Z,1005.58
2019-01-02T09:15:03.927Z,1005.58
2019-01-02T09:16:03.923Z,1005.63
2019-01-02T09:17:03.904Z,1005.61
2019-01-02T09:18:03.900Z,1005.61
2019-01-02T09:19:03.886Z,1005.65
2019-01-02T09:20:03.877Z,1005.65
2019-01-02T09:21:03.868Z,1005.69
2019-01-02T09:22:03.859Z,1005.68
2019-01-02T09:23:03.851Z,1005.6
2019-01-02T09:24:03.845Z,1005.64
2019-01-02T09:25:03.832Z,1005.62
2019-01-02T09:26:03.822Z,1005.62
2019-01-02T09:27:03.812Z,1005.64
2019-01-02T09:28:03.804Z,1005.68
2019-01-02T09:29:03.796Z,1005.65
2019-01-02T09:30:03.790Z,1005.6
2019-01-02T09:31:03.773Z,1005.64
2019-01-02T09:32:03.765Z,1005.67
2019-01-02T09:33:03.756Z,1005.62
2019-01-02T09:34:03.749Z,1005.67
2019-01-02T09:35:03.744Z,1005.7
2019-01-02T09:36:03.731Z,1005.72
2019-01-02T09:37:03.734Z,1005.73
2019-01-02T09:38:03.711Z,1005.72
2019-01-02T09:39:03.718Z,1005.76
2019-01-02T09:40:03.995Z,1005.77
2019-01-02T09:41:03.729Z,1005.77
2019-01-02T09:42:03.679Z,1005.72
2019-01-02T09:43:03.665Z,1005.69
2019-01-02T09:44:03.652Z,1005.71
2019-01-02T09:45:03.647Z,1005.73
2019-01-02T09:46:03.638Z,1005.78
2019-01-02T09:47:03.636Z,1005.77
2019-01-02T09:48:03.664Z,1005.76
2019-01-02T09:49:03.612Z,1005.73
2019-01-02T09:50:03.611Z,1005.74
2019-01-02T09:51:03.590Z,1005.74
2019-01-02T09:52:03.583Z,1005.65
2019-01-02T09:53:03.580Z,1005.65
2019-01-02T09:54:03.561Z,1005.61
2019-01-02T09:55:05.477Z,1005.65
2019-01-02T09:56:03.569Z,1005.67
2019-01-02T09:57:03.533Z,1005.65
2019-01-02T09:58:03.525Z,1005.61
2019-01-02T09:59:03.516Z,1005.59
2019-01-02T10:00:03.509Z,1005.64
2019-01-02T10:01:03.506Z,1005.67
2019-01-02T10:02:03.489Z,1005.64
2019-01-02T10:03:03.479Z,1005.6
2019-01-02T10:04:03.468Z,1005.64
2019-01-02T10:05:03.459Z,1005.63
2019-01-02T10:06:03.451Z,1005.64
2019-01-02T10:07:03.443Z,1005.58
2019-01-02T10:08:03.432Z,1005.57
2019-01-02T10:09:03.426Z,1005.58
2019-01-02T10:10:03.416Z,1005.52
2019-01-02T10:11:03.406Z,1005.53
2019-01-02T10:12:03.412Z,1005.55
2019-01-02T10:13:03.395Z,1005.61
2019-01-02T10:14:03.381Z,1005.65
2019-01-02T10:15:03.367Z,1005.6
2019-01-02T10:16:03.364Z,1005.65
2019-01-02T10:17:03.352Z,1005.57
2019-01-02T10:18:03.348Z,1005.57
2019-01-02T10:19:03.334Z,1005.55
2019-01-02T10:20:03.343Z,1005.53
2019-01-02T10:21:03.315Z,1005.54
2019-01-02T10:22:03.317Z,1005.58
2019-01-02T10:23:03.295Z,1005.61
2019-01-02T10:24:03.292Z,1005.61
2019-01-02T10:25:03.293Z,1005.63
2019-01-02T10:26:03.268Z,1005.62
2019-01-02T10:27:03.264Z,1005.59
2019-01-02T10:28:03.253Z,1005.62
2019-01-02T10:29:03.241Z,1005.62
2019-01-02T10:30:03.230Z,1005.55
2019-01-02T10:31:03.231Z,1005.62
2019-01-02T10:32:03.213Z,1005.6
2019-01-02T10:33:03.208Z,1005.61
2019-01-02T10:34:03.195Z,1005.58
2019-01-02T10:35:03.192Z,1005.57
2019-01-02T10:36:03.178Z,1005.51
2019-01-02T10:37:03.173Z,1005.5
2019-01-02T10:38:03.160Z,1005.46
2019-01-02T10:39:03.151Z,1005.49
2019-01-02T10:40:03.138Z,1005.52
2019-01-02T10:41:03.132Z,1005.59
2019-01-02T10:42:03.121Z,1005.64
2019-01-02T10:43:03.111Z,1005.63
2019-01-02T10:44:03.101Z,1005.61
2019-01-02T10:45:03.094Z,1005.64
2019-01-02T10:46:03.091Z,1005.64
2019-01-02T10:47:03.087Z,1005.51
2019-01-02T10:48:03.067Z,1005.5
2019-01-02T10:49:03.058Z,1005.54
2019-01-02T10:50:03.050Z,1005.41
2019-01-02T10:51:03.046Z,1005.43
2019-01-02T10:52:03.034Z,1005.36
2019-01-02T10:53:03.031Z,1005.34
2019-01-02T10:54:03.016Z,1005.38
2019-01-02T10:55:03.005Z,1005.32
2019-01-02T10:56:03.000Z,1005.4
2019-01-02T10:57:02.994Z,1005.32
2019-01-02T10:58:02.981Z,1005.35
2019-01-02T10:59:02.974Z,1005.34
2019-01-02T11:00:02.962Z,1005.41
2019-01-02T11:01:02.950Z,1005.33
2019-01-02T11:02:02.943Z,1005.3
2019-01-02T11:03:02.932Z,1005.31
2019-01-02T11:04:02.924Z,1005.32
2019-01-02T11:05:02.916Z,1005.24
2019-01-02T11:06:02.910Z,1005.25
2019-01-02T11:07:02.897Z,1005.28
2019-01-02T11:08:02.889Z,1005.22
2019-01-02T11:09:02.901Z,1005.19
2019-01-02T11:10:02.871Z,1005.27
2019-01-02T11:11:02.864Z,1005.24
2019-01-02T11:12:02.855Z,1005.27
2019-01-02T11:13:02.844Z,1005.23
2019-01-02T11:14:02.834Z,1005.27
2019-01-02T11:15:02.827Z,1005.25
2019-01-02T11:16:02.817Z,1005.25
2019-01-02T11:17:02.808Z,1005.28
2019-01-02T11:18:02.803Z,1005.19
2019-01-02T11:19:02.793Z,1005.17
2019-01-02T11:20:02.789Z,1005.23
2019-01-02T11:21:02.773Z,1005.19
2019-01-02T11:22:02.768Z,1005.15
2019-01-02T11:23:02.757Z,1005.17
2019-01-02T11:24:02.749Z,1005.15
2019-01-02T11:25:02.749Z,1005.13
2019-01-02T11:26:02.732Z,1005.07
2019-01-02T11:27:02.718Z,1005.09
2019-01-02T11:28:02.709Z,1005.1
2019-01-02T11:29:02.701Z,1005.08
2019-01-02T11:30:02.694Z,1005.1
2019-01-02T11:31:02.692Z,1005.24
2019-01-02T11:32:02.677Z,1005.14
2019-01-02T11:33:02.667Z,1005.09
2019-01-02T11:34:02.659Z,1005.18
2019-01-02T11:35:02.646Z,1005.15
2019-01-02T11:36:02.639Z,1005.11
2019-01-02T11:37:02.634Z,1005.18
2019-01-02T11:38:02.618Z,1005.16
2019-01-02T11:39:02.615Z,1005.12
2019-01-02T11:40:02.601Z,1005.09
2019-01-02T11:41:02.591Z,1005.09
2019-01-02T11:42:02.582Z,1005.12
2019-01-02T11:43:02.581Z,1005.15
2019-01-02T11:44:02.575Z,1005.02
2019-01-02T11:45:02.568Z,1004.99
2019-01-02T11:46:02.547Z,1004.99
2019-01-02T11:47:02.538Z,1004.99
2019-01-02T11:48:02.531Z,1005.01
2019-01-02T11:49:02.522Z,1004.95
2019-01-02T11:50:02.518Z,1004.93
2019-01-02T11:51:02.507Z,1004.96
2019-01-02T11:52:02.496Z,1004.9
2019-01-02T11:53:02.484Z,1004.9
2019-01-02T11:54:02.475Z,1004.94
2019-01-02T11:55:02.465Z,1004.91
2019-01-02T11:56:02.458Z,1004.95
2019-01-02T11:57:02.449Z,1004.9
2019-01-02T11:58:02.438Z,1004.93
2019-01-02T11:59:02.429Z,1004.9
2019-01-02T12:00:02.423Z,1004.87
2019-01-02T12:01:02.410Z,1004.95
2019-01-02T12:02:02.401Z,1004.95
2019-01-02T12:03:02.401Z,1004.93
2019-01-02T12:04:02.381Z,1004.95
2019-01-02T12:05:02.374Z,1004.97
2019-01-02T12:06:02.368Z,1004.9
2019-01-02T12:07:02.360Z,1004.92
2019-01-02T12:08:02.347Z,1004.93